Time;durP1;ratioP1;P1;durP2;ratioP2;P2;SDS_P1;SDS_P2;PMS_P1;PMS_P2;Temp;Humidity;BMP_temperature;BMP_pressure;BME280_temperature;BME280_humidity;BME280_pressure;Samples;Min_cycle;Max_cycle;Signal;HPM_P1;HPM_P2
2023/08/20 00:00:08;;;;;;;10.10;9.20;;;;;;;26.62;42.47;95340.84;6043654;28;109744;-68
2023/08/20 00:03:13;;;;;;;9.55;8.75;;;;;;;26.62;42.67;95344.31;6041396;28;110421;-68
2023/08/20 00:06:17;;;;;;;9.27;8.47;;;;;;;26.62;42.96;95344.31;6057992;28;110558;-67
2023/08/20 00:09:20;;;;;;;9.70;8.90;;;;;;;26.62;42.49;95346.97;6049311;28;109525;-68
2023/08/20 00:12:25;;;;;;;9.45;8.75;;;;;;;26.62;42.24;95354.25;6053995;28;110028;-68
2023/08/20 00:15:29;;;;;;;9.07;8.38;;;;;;;26.61;42.28;95347.31;6042437;28;110038;-68
2023/08/20 00:18:33;;;;;;;9.90;9.00;;;;;;;26.61;42.35;95347.31;6063861;28;109611;-67
2023/08/20 00:21:42;;;;;;;9.20;8.50;;;;;;;26.61;42.77;95348.09;6061635;28;109884;-69
2023/08/20 00:24:46;;;;;;;9.30;8.45;;;;;;;26.61;42.92;95350.00;6061394;28;109803;-69
2023/08/20 00:27:50;;;;;;;9.52;8.73;;;;;;;26.62;42.89;95343.50;6053067;28;110190;-70
2023/08/20 00:30:53;;;;;;;9.18;8.38;;;;;;;26.62;42.71;95346.97;6047894;28;109795;-68
2023/08/20 00:33:56;;;;;;;9.40;8.50;;;;;;;26.62;42.44;95357.72;6062968;28;111664;-66
2023/08/20 00:37:09;;;;;;;9.60;8.80;;;;;;;26.61;42.60;95353.47;6056074;28;112813;-66
2023/08/20 00:40:12;;;;;;;9.57;8.77;;;;;;;26.61;42.52;95350.78;6051200;28;109888;-68
2023/08/20 00:43:17;;;;;;;8.80;8.10;;;;;;;26.61;42.68;95353.47;6057545;28;109808;-68
2023/08/20 00:46:20;;;;;;;9.43;8.73;;;;;;;26.62;42.39;95346.19;6056617;28;109768;-66
2023/08/20 00:49:23;;;;;;;8.90;8.20;;;;;;;26.60;43.07;95341.16;6040254;28;109798;-69
2023/08/20 00:52:27;;;;;;;9.10;8.40;;;;;;;26.55;42.92;95333.31;6040098;28;111039;-68
2023/08/20 00:55:30;;;;;;;8.40;7.70;;;;;;;26.62;42.42;95338.16;6062602;28;109858;-68
2023/08/20 00:58:34;;;;;;;9.30;8.60;;;;;;;26.60;42.65;95341.16;6063779;28;110475;-68
2023/08/20 01:01:38;;;;;;;8.35;7.65;;;;;;;26.61;43.07;95341.94;6052820;28;110050;-68
2023/08/20 01:04:41;;;;;;;8.85;8.15;;;;;;;26.61;42.63;95344.63;6057879;28;109810;-68
2023/08/20 01:07:59;;;;;;;8.70;8.00;;;;;;;26.61;42.41;95350.78;6063299;28;110009;-65
2023/08/20 01:11:08;;;;;;;8.60;7.90;;;;;;;26.62;42.61;95346.19;6041560;28;109801;-65
2023/08/20 01:14:17;;;;;;;8.77;8.00;;;;;;;26.61;42.66;95341.94;6047928;28;111342;-66
2023/08/20 01:17:20;;;;;;;8.52;7.82;;;;;;;26.59;42.43;95334.22;6063153;28;109965;-65
2023/08/20 01:20:28;;;;;;;8.13;7.53;;;;;;;26.52;42.49;95337.41;6063184;28;113213;-65
2023/08/20 01:23:51;;;;;;;9.20;8.40;;;;;;;26.38;42.30;95336.91;6050127;28;110255;-66
2023/08/20 01:27:09;;;;;;;9.48;8.48;;;;;;;26.35;42.94;95336.75;6039382;28;109963;-65
2023/08/20 01:30:14;;;;;;;9.05;8.25;;;;;;;26.35;42.73;95336.75;6039112;28;110074;-66
2023/08/20 01:33:17;;;;;;;9.23;8.48;;;;;;;26.36;43.01;95343.69;6045274;28;110737;-67
2023/08/20 01:36:21;;;;;;;9.27;8.37;;;;;;;26.36;42.36;95341.00;6028229;28;110207;-65
2023/08/20 01:39:24;;;;;;;8.93;8.10;;;;;;;26.26;43.17;95332.22;6056927;28;109798;-65
2023/08/20 01:42:27;;;;;;;9.23;8.43;;;;;;;26.14;43.37;95326.00;6063903;28;109950;-65
2023/08/20 01:45:32;;;;;;;9.02;8.32;;;;;;;26.18;43.20;95324.22;6042854;28;109942;-66
2023/08/20 01:48:35;;;;;;;9.05;8.35;;;;;;;26.19;42.61;95320.44;6038246;28;109841;-65
2023/08/20 01:51:38;;;;;;;9.38;8.68;;;;;;;26.18;43.04;95319.63;6043364;28;110217;-66
2023/08/20 01:54:42;;;;;;;9.50;8.70;;;;;;;26.11;42.93;95311.34;6052766;28;109963;-66
2023/08/20 01:57:45;;;;;;;10.27;9.48;;;;;;;26.19;42.94;95312.38;6032891;28;109773;-66
2023/08/20 02:00:49;;;;;;;11.40;10.40;;;;;;;26.20;43.34;95314.72;6043027;28;109831;-67
2023/08/20 02:03:53;;;;;;;11.47;10.53;;;;;;;26.23;43.06;95310.63;6056551;28;109728;-66
2023/08/20 02:06:56;;;;;;;10.98;10.07;;;;;;;26.24;42.57;95306.84;6058900;28;109726;-66
2023/08/20 02:09:59;;;;;;;11.77;10.88;;;;;;;26.20;42.55;95297.84;6054864;28;110021;-66
2023/08/20 02:13:04;;;;;;;11.82;10.63;;;;;;;25.99;43.18;95295.13;6065211;28;109781;-65
2023/08/20 02:16:08;;;;;;;10.32;9.52;;;;;;;25.96;43.27;95291.19;6044521;28;109800;-67
2023/08/20 02:19:11;;;;;;;11.40;10.47;;;;;;;25.98;42.91;95291.66;6042829;28;110557;-67
2023/08/20 02:22:14;;;;;;;14.30;13.00;;;;;;;26.02;43.32;95286.44;6042185;28;110789;-66
2023/08/20 02:25:17;;;;;;;15.47;14.07;;;;;;;26.07;43.26;95294.31;6059537;28;109883;-66
2023/08/20 02:28:21;;;;;;;13.97;12.87;;;;;;;25.93;44.00;95286.47;6066402;28;110296;-68
2023/08/20 02:31:25;;;;;;;12.48;11.38;;;;;;;25.82;43.48;95287.16;6056401;28;109721;-66
2023/08/20 02:34:32;;;;;;;12.10;11.10;;;;;;;25.80;43.73;95290.19;6046958;28;109944;-66
2023/08/20 02:37:36;;;;;;;11.00;10.20;;;;;;;25.73;43.93;95295.28;6062173;28;110711;-67
2023/08/20 02:40:42;;;;;;;10.88;9.98;;;;;;;25.65;43.99;95291.50;6057075;28;109760;-66
2023/08/20 02:43:46;;;;;;;10.82;9.90;;;;;;;25.82;43.67;95289.84;6040492;28;110267;-67
2023/08/20 02:46:50;;;;;;;11.13;10.23;;;;;;;25.97;43.13;95287.41;6061822;28;109973;-67
2023/08/20 02:49:53;;;;;;;11.80;10.80;;;;;;;26.05;43.32;95290.41;6064705;28;109523;-67
2023/08/20 02:52:56;;;;;;;10.20;9.20;;;;;;;25.84;43.43;95293.78;6060540;28;109778;-66
2023/08/20 02:55:59;;;;;;;9.93;9.03;;;;;;;25.81;43.37;95294.44;6053330;28;111824;-67
2023/08/20 02:59:03;;;;;;;9.77;9.00;;;;;;;25.87;43.28;95301.16;6051460;28;109941;-66
2023/08/20 03:02:07;;;;;;;10.90;9.97;;;;;;;25.96;43.09;95301.13;6055732;28;110020;-67
2023/08/20 03:05:11;;;;;;;10.27;9.48;;;;;;;25.93;43.15;95305.25;6050300;28;109439;-67
2023/08/20 03:08:14;;;;;;;9.33;8.63;;;;;;;25.80;43.34;95302.78;6058243;28;109844;-66
2023/08/20 03:11:17;;;;;;;9.77;8.97;;;;;;;25.81;43.33;95310.50;6053868;28;110320;-67
2023/08/20 03:14:20;;;;;;;10.30;9.40;;;;;;;25.87;43.38;95309.22;6048785;28;110071;-67
2023/08/20 03:17:25;;;;;;;9.40;8.60;;;;;;;25.82;43.14;95312.09;6051652;28;110145;-67
2023/08/20 03:20:30;;;;;;;9.40;8.50;;;;;;;25.84;43.05;95303.72;6044885;28;109497;-66
2023/08/20 03:23:34;;;;;;;9.70;8.90;;;;;;;25.82;42.98;95300.56;6057938;28;109866;-67
2023/08/20 03:26:37;;;;;;;10.07;9.27;;;;;;;25.78;43.01;95299.66;6063286;28;110034;-67
2023/08/20 03:29:40;;;;;;;10.10;9.10;;;;;;;25.69;43.23;95302.38;6054447;28;110878;-68
2023/08/20 03:32:44;;;;;;;9.77;8.87;;;;;;;25.77;43.17;95296.19;6062685;28;111149;-67
2023/08/20 03:35:48;;;;;;;9.68;8.77;;;;;;;25.86;43.20;95298.81;6051532;28;109787;-67
2023/08/20 03:38:51;;;;;;;9.20;8.40;;;;;;;25.91;42.99;95295.97;6059426;28;111121;-66
2023/08/20 03:41:54;;;;;;;10.00;9.20;;;;;;;25.95;42.72;95289.63;6048191;28;110880;-67
2023/08/20 03:44:57;;;;;;;10.43;9.63;;;;;;;25.91;42.94;95291.38;6063390;28;109959;-67
2023/08/20 03:48:02;;;;;;;9.27;8.57;;;;;;;25.82;42.95;95293.31;6064686;28;110560;-67
2023/08/20 03:51:05;;;;;;;9.65;8.95;;;;;;;25.73;43.31;95286.44;6054035;28;111299;-66
2023/08/20 03:54:08;;;;;;;9.20;8.40;;;;;;;25.68;42.97;95290.06;6058434;28;109825;-66
2023/08/20 03:57:11;;;;;;;9.30;8.50;;;;;;;25.66;43.19;95281.56;6064464;28;109888;-67
2023/08/20 04:00:15;;;;;;;9.38;8.55;;;;;;;25.73;43.08;95286.44;6064456;28;110283;-68
2023/08/20 04:03:20;;;;;;;8.80;8.10;;;;;;;25.76;43.14;95286.56;6049228;28;111105;-67
2023/08/20 04:06:23;;;;;;;8.50;7.80;;;;;;;25.77;42.99;95287.34;6064156;28;109630;-67
2023/08/20 04:09:26;;;;;;;9.23;8.52;;;;;;;25.72;42.60;95288.34;6049953;28;109400;-67
2023/08/20 04:12:29;;;;;;;9.45;8.70;;;;;;;25.72;43.09;95284.88;6053686;28;110879;-68
2023/08/20 04:15:32;;;;;;;10.00;9.20;;;;;;;25.77;42.65;95276.63;6052290;28;110046;-67
2023/08/20 04:18:37;;;;;;;14.40;13.10;;;;;;;25.82;42.75;95284.47;6056864;28;110245;-67
2023/08/20 04:21:40;;;;;;;11.33;10.43;;;;;;;25.88;42.47;95291.25;6047520;28;110195;-68
2023/08/20 04:24:43;;;;;;;10.95;9.95;;;;;;;25.88;42.88;95283.22;6069971;28;109676;-68
2023/08/20 04:27:46;;;;;;;10.00;9.20;;;;;;;25.80;43.06;95290.19;6082289;28;109929;-68
2023/08/20 04:30:50;;;;;;;9.10;8.40;;;;;;;25.81;42.91;95288.28;6044889;28;109551;-66
2023/08/20 04:33:54;;;;;;;9.32;8.52;;;;;;;25.81;42.92;95288.28;6055598;28;109926;-67
2023/08/20 04:36:57;;;;;;;10.53;9.53;;;;;;;25.83;42.87;95291.41;6045229;28;110067;-66
2023/08/20 04:40:00;;;;;;;9.87;8.90;;;;;;;25.84;42.58;95293.00;6062181;28;109992;-65
2023/08/20 04:43:04;;;;;;;11.10;10.20;;;;;;;25.86;42.75;95283.50;6062103;28;110020;-66
2023/08/20 04:46:08;;;;;;;11.00;10.00;;;;;;;25.96;42.74;95291.19;6040030;28;109944;-66
2023/08/20 04:49:13;;;;;;;10.27;9.27;;;;;;;25.83;42.94;95286.06;6039066;28;111975;-66
2023/08/20 04:52:16;;;;;;;10.32;9.32;;;;;;;25.85;42.93;95292.66;6061191;28;110268;-66
2023/08/20 04:55:19;;;;;;;10.60;9.70;;;;;;;25.93;42.91;95294.53;6058364;28;109955;-66
2023/08/20 04:58:22;;;;;;;11.00;10.10;;;;;;;25.98;42.75;95288.97;6054750;28;109994;-65
2023/08/20 05:01:25;;;;;;;10.33;9.47;;;;;;;25.93;43.12;95294.53;6043761;28;110348;-65
2023/08/20 05:04:30;;;;;;;9.77;8.97;;;;;;;25.96;43.01;95295.78;6055159;28;109759;-66
2023/08/20 05:07:33;;;;;;;10.27;9.38;;;;;;;25.62;43.70;95292.16;6061571;28;110793;-66
2023/08/20 05:10:37;;;;;;;9.88;8.98;;;;;;;25.40;44.77;95296.97;6051412;28;109815;-66
2023/08/20 05:13:40;;;;;;;9.60;8.33;;;;;;;25.33;44.25;95298.22;6058081;28;109832;-65
2023/08/20 05:16:43;;;;;;;21.77;9.67;;;;;;;25.48;44.27;95304.97;6039163;28;110773;-66
2023/08/20 05:19:48;;;;;;;22.60;20.17;;;;;;;25.50;44.30;95292.03;6047649;28;110197;-66
2023/08/20 05:22:51;;;;;;;49.03;45.20;;;;;;;25.34;45.00;95304.34;6038781;28;109720;-66
2023/08/20 05:25:54;;;;;;;26.77;24.08;;;;;;;25.41;44.58;95296.66;6056867;28;109799;-64
2023/08/20 05:28:57;;;;;;;16.80;14.50;;;;;;;25.56;44.69;95314.09;6051303;28;109929;-65
2023/08/20 05:32:00;;;;;;;13.85;11.88;;;;;;;25.62;44.37;95310.13;6041266;28;111057;-65
2023/08/20 05:35:06;;;;;;;12.70;11.40;;;;;;;25.59;44.94;95316.94;6037142;28;109857;-65
2023/08/20 05:38:10;;;;;;;12.93;11.70;;;;;;;25.61;44.87;95317.38;6039910;28;110763;-66
2023/08/20 05:41:13;;;;;;;14.10;11.00;;;;;;;25.62;44.79;95318.97;6039528;28;110301;-66
2023/08/20 05:44:16;;;;;;;14.65;13.05;;;;;;;25.56;45.92;95317.56;6034234;28;110316;-65
2023/08/20 05:47:19;;;;;;;40.30;13.73;;;;;;;25.63;45.74;95320.53;6034082;28;109782;-61
2023/08/20 05:50:24;;;;;;;29.55;12.85;;;;;;;25.73;45.69;95329.34;6039394;28;109800;-66
2023/08/20 05:53:27;;;;;;;18.35;11.57;;;;;;;25.76;45.99;95329.47;6039812;28;111023;-65
2023/08/20 05:56:30;;;;;;;16.02;11.98;;;;;;;25.69;46.23;95329.94;6053228;28;110104;-65
2023/08/20 05:59:33;;;;;;;16.00;11.00;;;;;;;25.59;46.55;95327.66;6062411;28;109887;-66
2023/08/20 06:02:36;;;;;;;23.63;12.40;;;;;;;25.66;46.53;95325.25;6063023;28;109473;-66
2023/08/20 06:05:41;;;;;;;14.43;10.70;;;;;;;25.59;46.84;95330.31;6062285;28;110137;-66
2023/08/20 06:08:44;;;;;;;17.10;11.70;;;;;;;25.90;46.36;95330.03;6051980;28;111705;-66
2023/08/20 06:12:05;;;;;;;17.90;11.57;;;;;;;26.05;45.90;95318.00;6062223;28;109899;-66
2023/08/20 06:15:09;;;;;;;30.27;27.17;;;;;;;25.97;46.79;95326.84;6061811;28;110062;-65
2023/08/20 06:18:12;;;;;;;30.67;18.92;;;;;;;25.79;47.12;95328.81;6056724;28;110132;-66
2023/08/20 06:21:16;;;;;;;25.20;14.43;;;;;;;25.76;47.63;95329.47;6057039;28;113196;-64
2023/08/20 06:24:20;;;;;;;15.27;12.40;;;;;;;25.85;47.08;95329.41;6062733;28;112613;-63
2023/08/20 06:27:23;;;;;;;18.02;11.90;;;;;;;26.02;46.61;95331.25;6060474;28;111604;-66
2023/08/20 06:30:26;;;;;;;15.45;12.32;;;;;;;26.13;46.33;95337.84;6052799;28;111266;-67
2023/08/20 06:33:29;;;;;;;16.15;11.50;;;;;;;26.07;46.63;95329.19;6046258;28;109574;-65
2023/08/20 06:36:34;;;;;;;13.13;11.20;;;;;;;25.26;45.44;95342.69;6066134;28;109708;-65
2023/08/20 06:39:37;;;;;;;14.37;11.63;;;;;;;24.67;45.50;95331.66;6065990;28;109795;-65
2023/08/20 06:42:40;;;;;;;13.40;12.00;;;;;;;24.37;44.53;95333.41;6054486;28;110324;-64
2023/08/20 06:45:43;;;;;;;14.87;11.70;;;;;;;23.95;43.48;95332.97;6054551;28;110011;-65
2023/08/20 06:48:46;;;;;;;13.00;11.70;;;;;;;23.68;43.70;95333.97;6064771;28;110177;-66
2023/08/20 06:51:50;;;;;;;13.33;11.93;;;;;;;23.62;43.00;95331.75;6054828;28;110328;-67
2023/08/20 06:54:54;;;;;;;12.75;10.80;;;;;;;23.51;42.77;95331.22;6047894;28;109786;-65
2023/08/20 06:57:57;;;;;;;12.18;11.00;;;;;;;23.45;42.33;95332.44;6059143;28;109994;-65
2023/08/20 07:01:06;;;;;;;13.75;11.20;;;;;;;23.45;42.23;95329.78;6064954;28;109779;-65
2023/08/20 07:04:10;;;;;;;12.45;11.30;;;;;;;23.46;42.20;95334.81;6055372;28;110373;-66
2023/08/20 07:07:15;;;;;;;15.15;11.90;;;;;;;23.38;42.00;95329.44;6063243;28;109776;-64
2023/08/20 07:10:19;;;;;;;14.93;11.87;;;;;;;23.81;41.71;95332.28;6064648;28;111191;-68
2023/08/20 07:13:22;;;;;;;13.40;12.10;;;;;;;23.45;41.50;95333.25;6064984;28;109952;-68
2023/08/20 07:16:25;;;;;;;13.98;12.48;;;;;;;23.23;41.80;95342.06;6055355;28;109906;-67
2023/08/20 07:19:28;;;;;;;17.88;12.57;;;;;;;23.45;41.58;95335.13;6064808;28;109797;-68
2023/08/20 07:22:33;;;;;;;20.00;13.80;;;;;;;23.13;42.46;95323.59;6065013;28;109574;-68
2023/08/20 07:25:37;;;;;;;26.80;14.53;;;;;;;23.22;42.00;95332.47;6063357;28;110159;-69
2023/08/20 07:28:59;;;;;;;25.70;13.90;;;;;;;23.14;42.28;95325.19;6055281;28;110281;-68
2023/08/20 07:32:03;;;;;;;18.33;13.90;;;;;;;23.16;41.83;95328.34;6058751;28;110314;-67
2023/08/20 07:35:07;;;;;;;20.25;14.73;;;;;;;23.36;41.44;95334.31;6063699;28;110039;-68
2023/08/20 07:38:15;;;;;;;19.48;14.90;;;;;;;23.13;41.75;95328.16;6055232;28;109876;-67
2023/08/20 07:41:19;;;;;;;17.13;15.50;;;;;;;23.22;40.64;95326.34;6047590;28;110605;-67
2023/08/20 07:44:22;;;;;;;18.33;15.75;;;;;;;23.25;41.44;95333.75;6045113;28;109714;-67
2023/08/20 07:47:26;;;;;;;17.42;15.63;;;;;;;23.11;41.49;95333.03;6063571;28;110948;-66
2023/08/20 07:50:29;;;;;;;17.02;15.07;;;;;;;23.15;41.79;95332.09;6050433;28;109955;-67
2023/08/20 07:53:34;;;;;;;17.60;15.90;;;;;;;23.07;41.47;95332.84;6063575;28;109997;-67
2023/08/20 07:56:37;;;;;;;18.50;16.60;;;;;;;23.11;41.95;95323.13;6054315;28;109765;-67
2023/08/20 07:59:40;;;;;;;21.00;19.10;;;;;;;23.18;41.77;95322.69;6063636;28;110307;-66
2023/08/20 08:02:43;;;;;;;23.80;21.52;;;;;;;23.22;42.09;95315.66;6053788;28;109602;-66
2023/08/20 08:05:50;;;;;;;30.80;27.70;;;;;;;23.26;41.88;95322.75;6056554;28;109958;-66
2023/08/20 08:08:54;;;;;;;28.38;25.33;;;;;;;23.08;42.37;95323.75;6063441;28;109974;-61
2023/08/20 08:11:58;;;;;;;25.30;22.70;;;;;;;23.06;42.02;95323.25;6042853;28;109850;-62
2023/08/20 08:15:01;;;;;;;31.53;25.97;;;;;;;23.16;41.84;95325.66;6059266;28;110204;-61
2023/08/20 08:18:05;;;;;;;38.25;28.30;;;;;;;23.21;41.60;95325.56;6063992;28;110289;-61
2023/08/20 08:21:09;;;;;;;37.65;29.95;;;;;;;23.04;42.26;95322.78;6062631;28;109902;-61
2023/08/20 08:24:14;;;;;;;33.13;29.52;;;;;;;22.96;42.03;95326.16;6054231;28;110123;-61
2023/08/20 08:27:17;;;;;;;30.07;27.17;;;;;;;22.87;41.71;95328.78;6061502;28;110271;-62
2023/08/20 08:30:20;;;;;;;30.85;27.65;;;;;;;22.95;41.06;95316.59;6056704;28;109558;-62
2023/08/20 08:33:24;;;;;;;29.70;26.70;;;;;;;22.86;41.33;95323.75;6046087;28;109814;-61
2023/08/20 08:36:27;;;;;;;28.50;25.70;;;;;;;23.00;40.39;95319.91;6052882;28;110354;-62
2023/08/20 08:39:32;;;;;;;26.90;24.20;;;;;;;22.79;41.23;95318.03;6063003;28;109930;-62
2023/08/20 08:42:35;;;;;;;29.52;26.02;;;;;;;22.86;40.74;95321.88;6063893;28;110054;-62
2023/08/20 08:45:38;;;;;;;30.73;27.83;;;;;;;22.87;40.69;95312.78;6055027;28;111498;-63
2023/08/20 08:48:43;;;;;;;27.87;24.97;;;;;;;23.07;40.53;95313.38;6051216;28;111185;-64
2023/08/20 08:51:47;;;;;;;28.70;22.50;;;;;;;23.11;39.70;95315.13;6049018;28;110455;-61
2023/08/20 08:54:52;;;;;;;26.23;18.73;;;;;;;22.87;40.57;95318.13;6057093;28;109976;-63
2023/08/20 08:57:56;;;;;;;21.13;17.57;;;;;;;23.00;39.96;95316.44;6052140;28;109840;-62
2023/08/20 09:00:59;;;;;;;19.90;15.80;;;;;;;23.06;40.31;95309.13;6052992;28;109490;-61
2023/08/20 09:04:02;;;;;;;20.45;17.27;;;;;;;22.93;39.85;95308.88;6050694;28;109874;-64
2023/08/20 09:07:05;;;;;;;23.07;18.27;;;;;;;22.81;40.20;95313.19;6061820;28;109888;-61
2023/08/20 09:10:10;;;;;;;20.35;17.42;;;;;;;22.93;39.94;95302.75;6049801;28;109765;-65
2023/08/20 09:13:13;;;;;;;18.60;16.67;;;;;;;22.85;40.04;95316.81;6061428;28;109813;-62
2023/08/20 09:16:16;;;;;;;17.75;15.90;;;;;;;22.69;40.06;95317.22;6049944;28;110006;-63
2023/08/20 09:19:20;;;;;;;18.55;16.58;;;;;;;22.68;41.05;95318.31;6061329;28;109818;-64
2023/08/20 09:22:24;;;;;;;20.05;17.15;;;;;;;22.83;41.84;95305.66;6033872;28;110021;-61
2023/08/20 09:25:28;;;;;;;18.95;17.00;;;;;;;22.77;42.20;95305.00;6056247;28;109789;-61
2023/08/20 09:28:42;;;;;;;20.55;18.33;;;;;;;22.81;42.81;95318.53;6063222;28;109694;-62
2023/08/20 09:31:46;;;;;;;22.67;20.30;;;;;;;22.90;42.44;95314.06;6043630;28;109818;-62
2023/08/20 09:34:50;;;;;;;22.47;20.20;;;;;;;22.73;42.03;95320.06;6060720;28;110195;-61
2023/08/20 09:38:00;;;;;;;20.83;17.57;;;;;;;22.63;42.44;95312.28;6061732;28;109797;-61
2023/08/20 09:41:06;;;;;;;17.40;15.60;;;;;;;22.67;42.41;95307.91;6057865;28;110371;-66
2023/08/20 09:44:10;;;;;;;15.82;14.43;;;;;;;22.62;42.46;95306.16;6047558;28;109900;-60
2023/08/20 09:47:14;;;;;;;15.60;14.20;;;;;;;22.66;41.82;95301.78;6044638;28;112292;-62
2023/08/20 09:50:19;;;;;;;17.02;15.38;;;;;;;22.75;41.39;95306.41;6057531;28;109782;-61
2023/08/20 09:53:27;;;;;;;23.80;16.20;;;;;;;22.90;41.27;95304.16;6057252;28;109876;-61
2023/08/20 09:56:39;;;;;;;21.63;15.90;;;;;;;23.01;40.84;95299.34;6047860;28;112669;-61
2023/08/20 09:59:43;;;;;;;18.42;14.90;;;;;;;23.07;40.62;95297.34;6043573;28;109817;-62
2023/08/20 10:02:46;;;;;;;17.98;16.25;;;;;;;22.86;40.24;95297.88;6061913;28;109762;-63
2023/08/20 10:05:51;;;;;;;18.43;16.10;;;;;;;22.93;40.12;95297.41;6053921;28;109753;-61
2023/08/20 10:08:55;;;;;;;16.67;15.17;;;;;;;22.96;39.56;95294.13;6076747;28;110204;-62
2023/08/20 10:12:01;;;;;;;15.90;14.50;;;;;;;22.69;39.52;95305.75;6072405;28;109871;-61
2023/08/20 10:15:06;;;;;;;14.80;13.30;;;;;;;22.64;39.86;95306.63;6064561;28;110071;-61
2023/08/20 10:18:09;;;;;;;12.90;11.60;;;;;;;22.59;40.45;95301.44;6062696;28;109972;-62
2023/08/20 10:21:13;;;;;;;13.17;11.87;;;;;;;22.52;40.64;95302.91;6070432;28;109715;-60
2023/08/20 10:24:19;;;;;;;14.20;10.57;;;;;;;22.37;40.56;95294.16;6064342;28;109797;-62
2023/08/20 10:27:27;;;;;;;10.33;9.33;;;;;;;22.40;41.70;95298.91;6065503;28;110259;-66
2023/08/20 10:30:30;;;;;;;10.27;9.00;;;;;;;22.62;42.02;95297.38;6075457;28;110011;-66
2023/08/20 10:33:35;;;;;;;9.23;7.85;;;;;;;22.69;42.25;95298.53;6066455;28;109784;-64
2023/08/20 10:36:43;;;;;;;8.85;7.97;;;;;;;22.75;42.00;95296.53;6065854;28;109958;-62
2023/08/20 10:39:54;;;;;;;9.43;7.40;;;;;;;22.67;42.04;95290.00;6050188;28;111037;-61
2023/08/20 10:43:02;;;;;;;7.80;7.10;;;;;;;22.55;42.94;95283.63;6062376;28;109969;-62
2023/08/20 10:46:16;;;;;;;7.53;6.93;;;;;;;22.48;42.46;95280.59;6066458;28;110029;-62
2023/08/20 10:49:20;;;;;;;7.40;6.70;;;;;;;22.43;42.39;95273.50;6080144;28;109782;-62
2023/08/20 10:52:24;;;;;;;7.30;6.60;;;;;;;22.41;42.06;95278.34;6058948;28;110324;-61
2023/08/20 10:55:28;;;;;;;7.00;6.30;;;;;;;22.59;41.98;95266.75;6049982;28;110907;-61
2023/08/20 10:58:33;;;;;;;7.30;6.60;;;;;;;22.36;42.34;95263.25;6051240;28;109922;-61
2023/08/20 11:01:36;;;;;;;7.30;6.70;;;;;;;22.34;42.87;95270.75;6063251;28;109918;-61
2023/08/20 11:04:40;;;;;;;6.50;6.00;;;;;;;22.46;42.27;95264.88;6051530;28;109823;-61
2023/08/20 11:07:44;;;;;;;6.30;5.70;;;;;;;22.42;42.63;95262.03;6065594;28;110334;-60
2023/08/20 11:10:47;;;;;;;6.75;6.15;;;;;;;22.47;42.96;95265.69;6063722;28;109995;-61
2023/08/20 11:13:51;;;;;;;6.20;5.70;;;;;;;22.40;42.55;95258.09;6051520;28;110115;-66
2023/08/20 11:16:55;;;;;;;7.20;6.50;;;;;;;22.37;41.99;95258.72;6042316;28;109894;-61
2023/08/20 11:19:58;;;;;;;6.50;5.90;;;;;;;22.41;42.12;95251.69;6066475;28;109560;-61
2023/08/20 11:23:12;;;;;;;6.80;6.30;;;;;;;22.36;42.98;95249.16;6058008;28;109829;-60
2023/08/20 11:26:15;;;;;;;6.60;6.10;;;;;;;22.49;42.90;95237.63;6048087;28;109983;-61
2023/08/20 11:29:21;;;;;;;6.75;6.25;;;;;;;22.52;42.46;95238.91;6063375;28;109928;-61
2023/08/20 11:32:24;;;;;;;7.20;6.50;;;;;;;22.40;42.68;95242.13;6064115;28;109827;-61
2023/08/20 11:35:28;;;;;;;7.88;6.10;;;;;;;22.39;42.86;95235.22;6057765;28;110029;-61
2023/08/20 11:38:31;;;;;;;7.07;6.38;;;;;;;22.26;43.87;95241.38;6039143;28;110857;-61
2023/08/20 11:41:37;;;;;;;8.30;7.60;;;;;;;22.37;44.00;95242.72;6056859;28;109962;-68
2023/08/20 11:44:46;;;;;;;9.53;8.63;;;;;;;23.22;42.74;95241.69;6059370;28;111276;-70
2023/08/20 11:47:50;;;;;;;8.95;8.15;;;;;;;23.64;41.71;95228.03;6056662;28;109508;-68
2023/08/20 11:50:53;;;;;;;8.70;7.90;;;;;;;23.84;41.35;95235.44;6063383;28;110902;-70
2023/08/20 11:53:56;;;;;;;8.20;7.50;;;;;;;23.98;41.11;95222.72;6061378;28;109938;-71
2023/08/20 11:57:04;;;;;;;7.80;7.20;;;;;;;24.07;40.69;95222.78;6061562;28;109614;-69
2023/08/20 12:00:12;;;;;;;9.07;8.38;;;;;;;24.14;40.73;95223.88;6052378;28;112913;-64
2023/08/20 12:03:16;;;;;;;9.70;7.72;;;;;;;24.10;40.41;95216.81;6058518;28;109680;-67
2023/08/20 12:06:20;;;;;;;8.27;7.43;;;;;;;24.02;40.08;95221.03;6059522;28;109735;-67
2023/08/20 12:09:24;;;;;;;9.10;8.10;;;;;;;23.92;39.77;95229.34;6061645;28;109794;-66
2023/08/20 12:12:27;;;;;;;8.43;7.72;;;;;;;23.84;39.88;95217.53;6052972;28;109506;-67
2023/08/20 12:15:31;;;;;;;8.77;7.93;;;;;;;23.87;39.24;95213.47;6063188;28;109994;-68
2023/08/20 12:18:35;;;;;;;8.30;7.40;;;;;;;23.89;39.00;95212.03;6058484;28;110056;-67
2023/08/20 12:21:41;;;;;;;7.68;6.97;;;;;;;23.93;38.83;95206.06;6049044;28;129805;-66
2023/08/20 12:24:44;;;;;;;7.57;6.97;;;;;;;23.69;38.84;95201.16;6057288;28;109867;-66
2023/08/20 12:27:47;;;;;;;7.80;7.20;;;;;;;23.70;38.84;95205.41;6050096;28;110882;-66
2023/08/20 12:30:52;;;;;;;7.05;6.55;;;;;;;23.67;38.85;95179.31;6050368;28;110565;-66
2023/08/20 12:33:55;;;;;;;7.18;6.57;;;;;;;23.69;38.78;95199.28;6051637;28;109759;-66
2023/08/20 12:36:58;;;;;;;6.25;5.75;;;;;;;23.70;38.69;95203.53;6062789;28;109945;-66
2023/08/20 12:40:03;;;;;;;7.28;6.57;;;;;;;23.70;38.41;95200.88;6063602;28;110335;-66
2023/08/20 12:43:06;;;;;;;7.10;6.10;;;;;;;23.74;38.22;95199.13;6063577;28;110299;-67
2023/08/20 12:46:12;;;;;;;6.88;6.20;;;;;;;23.64;38.57;95193.28;6049044;28;109975;-67
2023/08/20 12:49:15;;;;;;;6.50;5.90;;;;;;;23.66;38.58;95193.75;6060126;28;109738;-67
2023/08/20 12:52:18;;;;;;;6.57;6.07;;;;;;;23.60;38.13;95193.91;6050683;28;110031;-67
2023/08/20 12:55:21;;;;;;;5.97;5.47;;;;;;;23.59;38.23;95194.22;6061423;28;109798;-66
2023/08/20 12:58:25;;;;;;;6.05;5.55;;;;;;;23.54;38.45;95197.84;6045295;28;109968;-65
2023/08/20 13:01:29;;;;;;;6.00;5.50;;;;;;;23.59;39.03;95186.22;6058933;28;109898;-66
2023/08/20 13:04:33;;;;;;;6.20;5.70;;;;;;;23.57;38.82;95186.53;6063724;28;109973;-65
2023/08/20 13:07:37;;;;;;;5.80;5.30;;;;;;;23.57;38.80;95191.09;6053161;28;112983;-66
2023/08/20 13:10:41;;;;;;;5.80;5.30;;;;;;;23.71;39.26;95185.63;6063250;28;111662;-66
2023/08/20 13:13:45;;;;;;;6.32;5.72;;;;;;;23.72;39.73;95179.97;6062108;28;109965;-67
2023/08/20 13:16:50;;;;;;;5.97;5.57;;;;;;;23.74;39.15;95176.97;6057545;28;111137;-67
2023/08/20 13:19:53;;;;;;;5.80;5.20;;;;;;;23.72;39.31;95171.16;6029356;28;109516;-68
2023/08/20 13:22:56;;;;;;;6.15;5.65;;;;;;;23.68;39.28;95178.97;6040377;28;110372;-68
2023/08/20 13:26:00;;;;;;;5.70;5.22;;;;;;;23.71;38.83;95173.03;6053567;28;109886;-67
2023/08/20 13:29:03;;;;;;;7.40;5.38;;;;;;;23.68;39.02;95165.63;6053862;28;109945;-65
2023/08/20 13:32:07;;;;;;;6.20;5.60;;;;;;;23.79;39.16;95168.78;6046694;28;109410;-67
2023/08/20 13:35:10;;;;;;;6.20;5.70;;;;;;;23.83;38.93;95170.53;6064523;28;109804;-66
2023/08/20 13:38:14;;;;;;;6.28;5.70;;;;;;;23.74;39.40;95171.63;6058540;28;109910;-66
2023/08/20 13:41:17;;;;;;;5.68;5.03;;;;;;;23.85;39.03;95179.00;6059658;28;109493;-67
2023/08/20 13:44:21;;;;;;;6.10;5.50;;;;;;;23.80;39.18;95173.81;6055443;28;109748;-66
2023/08/20 13:47:25;;;;;;;6.10;5.50;;;;;;;23.80;39.38;95176.50;6057833;28;109854;-67
2023/08/20 13:50:29;;;;;;;5.80;5.30;;;;;;;23.75;39.29;95178.53;6059433;28;110031;-66
2023/08/20 13:53:32;;;;;;;5.50;5.00;;;;;;;23.75;39.18;95167.84;6055621;28;110894;-67
2023/08/20 13:56:35;;;;;;;5.60;5.10;;;;;;;23.77;39.64;95173.66;6056691;28;109923;-67
2023/08/20 13:59:38;;;;;;;4.90;4.50;;;;;;;23.78;39.28;95170.69;6045337;28;110172;-67
2023/08/20 14:02:43;;;;;;;5.43;5.03;;;;;;;23.80;39.19;95167.69;6069688;28;109511;-67
2023/08/20 14:05:47;;;;;;;5.25;4.85;;;;;;;23.70;39.57;95170.69;6048805;28;110323;-67